Time;durP1;ratioP1;P1;durP2;ratioP2;P2;SDS_P1;SDS_P2;PMS_P1;PMS_P2;Temp;Humidity;BMP_temperature;BMP_pressure;BME280_temperature;BME280_humidity;BME280_pressure;Samples;Min_cycle;Max_cycle;Signal;HPM_P1;HPM_P2
2023/02/13 00:01:02;;;;;;;37.22;16.00;;;;;;;17.73;66.40;103610.00;5102070;28;20059;-55
2023/02/13 00:03:28;;;;;;;37.80;15.25;;;;;;;17.66;66.38;103614.44;5097951;28;20043;-52
2023/02/13 00:05:53;;;;;;;40.27;15.00;;;;;;;17.77;65.89;103616.78;5101742;28;20092;-55
2023/02/13 00:08:19;;;;;;;35.25;16.40;;;;;;;17.77;65.96;103611.38;5099479;28;20028;-54
2023/02/13 00:10:46;;;;;;;41.23;16.67;;;;;;;17.88;66.03;103618.25;5103075;28;20040;-53
2023/02/13 00:13:11;;;;;;;39.97;16.63;;;;;;;17.66;66.75;103614.44;5102652;28;20272;-53
2023/02/13 00:15:36;;;;;;;41.13;16.67;;;;;;;17.71;66.40;103604.78;5099818;28;20269;-52
2023/02/13 00:18:03;;;;;;;36.28;15.45;;;;;;;17.62;66.65;103606.69;5099040;28;20036;-52
2023/02/13 00:20:29;;;;;;;36.90;15.35;;;;;;;17.85;66.28;103608.59;5099712;28;20096;-50
2023/02/13 00:22:54;;;;;;;36.47;16.35;;;;;;;17.81;66.58;103604.56;5103654;28;20047;-51
2023/02/13 00:25:20;;;;;;;35.87;14.93;;;;;;;17.82;66.53;103610.81;5101219;28;20048;-55
2023/02/13 00:27:45;;;;;;;31.52;14.85;;;;;;;17.75;66.51;103597.13;5099644;28;20035;-54
2023/02/13 00:30:11;;;;;;;37.07;15.93;;;;;;;17.65;66.90;103596.53;5103449;28;20035;-52
2023/02/13 00:32:37;;;;;;;37.40;15.27;;;;;;;17.75;66.84;103597.13;5100801;28;20096;-55
2023/02/13 00:35:02;;;;;;;40.93;16.87;;;;;;;17.78;66.76;103597.63;5099342;28;20040;-53
2023/02/13 00:37:28;;;;;;;32.90;14.50;;;;;;;17.75;66.81;103595.28;5103407;28;20032;-54
2023/02/13 00:39:55;;;;;;;37.45;16.75;;;;;;;17.75;66.79;103602.56;5104782;28;20032;-55
2023/02/13 00:42:25;;;;;;;33.40;15.90;;;;;;;17.73;66.81;103597.34;5101126;28;20036;-54
2023/02/13 00:44:52;;;;;;;39.93;17.00;;;;;;;17.77;66.97;103598.66;5082602;28;20043;-49
2023/02/13 00:47:18;;;;;;;39.23;16.93;;;;;;;17.80;66.81;103594.78;5101128;28;20291;-55
2023/02/13 00:49:44;;;;;;;44.63;19.25;;;;;;;17.75;67.19;103597.13;5103595;28;20264;-52
2023/02/13 00:52:10;;;;;;;40.35;17.13;;;;;;;17.75;67.32;103597.13;5084206;28;20043;-54
2023/02/13 00:54:36;;;;;;;42.35;17.15;;;;;;;17.63;67.71;103589.44;5099092;28;20032;-52
2023/02/13 00:57:01;;;;;;;47.73;17.90;;;;;;;17.71;67.65;103596.66;5101600;28;20044;-55
2023/02/13 00:59:27;;;;;;;45.20;17.60;;;;;;;17.78;67.39;103599.53;5098191;28;20289;-52
2023/02/13 01:01:52;;;;;;;41.17;17.67;;;;;;;17.62;67.54;103597.72;5099877;28;20273;-52
2023/02/13 01:04:18;;;;;;;36.30;16.30;;;;;;;17.75;67.34;103599.84;5103246;28;20036;-52
2023/02/13 01:06:43;;;;;;;42.87;17.67;;;;;;;17.76;67.51;103596.13;5081003;28;20064;-49
2023/02/13 01:09:10;;;;;;;35.45;16.23;;;;;;;17.88;66.65;103602.84;5098498;28;20035;-51
2023/02/13 01:11:35;;;;;;;;;;;;;;;17.57;67.88;103600.97;5096985;28;20048;-51
2023/02/13 01:14:02;;;;;;;47.45;18.77;;;;;;;17.70;67.59;103604.94;5101591;28;20391;-50
2023/02/13 01:16:28;;;;;;;34.65;15.35;;;;;;;17.69;67.83;103604.13;5099035;28;20035;-52
2023/02/13 01:18:54;;;;;;;40.35;16.00;;;;;;;17.61;67.94;103602.28;5100078;28;20036;-55
2023/02/13 01:21:22;;;;;;;43.87;18.03;;;;;;;17.61;68.11;103596.88;5078810;28;20040;-51
2023/02/13 01:23:48;;;;;;;38.53;15.87;;;;;;;17.71;67.80;103602.09;5099855;28;20280;-52
2023/02/13 01:26:22;;;;;;;37.60;17.33;;;;;;;17.75;67.68;103597.13;5099785;28;20558;-51
2023/02/13 01:28:53;;;;;;;43.87;18.23;;;;;;;17.55;68.34;103586.75;5097736;28;20265;-52
2023/02/13 01:31:19;;;;;;;39.53;16.93;;;;;;;17.58;68.26;103591.81;5103227;28;20282;-54
2023/02/13 01:33:45;;;;;;;38.10;16.95;;;;;;;17.66;68.17;103588.25;5098596;28;20341;-51
2023/02/13 01:36:13;;;;;;;39.03;16.75;;;;;;;17.58;68.16;103583.69;5100107;28;20051;-51
2023/02/13 01:38:40;;;;;;;39.60;18.07;;;;;;;17.57;68.56;103579.31;5081736;28;20044;-51
2023/02/13 01:41:06;;;;;;;42.10;17.02;;;;;;;17.48;68.84;103575.78;5103198;28;20287;-47
2023/02/13 01:43:54;;;;;;;37.40;16.67;;;;;;;17.46;69.16;103574.28;5103595;28;20032;-52
2023/02/13 01:46:34;;;;;;;39.83;18.67;;;;;;;17.44;69.15;103577.16;5080968;28;20265;-53
2023/02/13 01:49:10;;;;;;;41.40;18.00;;;;;;;17.53;68.82;103571.72;5098399;28;20043;-52
2023/02/13 01:51:38;;;;;;;38.80;18.57;;;;;;;17.55;68.83;103570.53;5102567;28;20285;-49
2023/02/13 01:54:11;;;;;;;40.57;18.20;;;;;;;17.55;68.99;103570.53;5080567;28;20278;-53
2023/02/13 01:56:44;;;;;;;38.53;16.87;;;;;;;17.52;69.08;103570.03;5083237;28;20841;-52
2023/02/13 01:59:15;;;;;;;36.40;17.27;;;;;;;17.55;68.99;103558.84;5079708;28;20289;-54
2023/02/13 02:01:42;;;;;;;37.43;17.43;;;;;;;17.39;69.55;103567.88;5080144;28;20281;-50
2023/02/13 02:04:30;;;;;;;37.55;17.77;;;;;;;17.35;69.76;103572.78;5096754;28;20332;-52
2023/02/13 02:07:08;;;;;;;39.33;16.37;;;;;;;17.49;69.57;103571.22;5077616;28;20036;-56
2023/02/13 02:09:38;;;;;;;43.67;18.20;;;;;;;17.58;69.22;103570.19;5095065;28;20337;-52
2023/02/13 02:12:23;;;;;;;40.43;18.20;;;;;;;17.56;69.32;103565.94;5097731;28;20268;-53
2023/02/13 02:14:49;;;;;;;36.70;15.90;;;;;;;17.49;69.61;103565.81;5079311;28;20331;-50
2023/02/13 02:17:17;;;;;;;37.97;15.93;;;;;;;17.50;69.46;103562.06;5077907;28;20277;-53
2023/02/13 02:19:54;;;;;;;38.15;16.35;;;;;;;17.44;69.61;103563.63;5078025;28;20307;-49
2023/02/13 02:22:35;;;;;;;43.37;17.83;;;;;;;17.66;69.03;103565.75;5075801;28;20036;-52
2023/02/13 02:25:13;;;;;;;38.03;18.10;;;;;;;17.44;69.74;103571.75;5110462;28;20269;-48
2023/02/13 02:28:22;;;;;;;42.47;18.40;;;;;;;17.34;69.73;103566.56;5097300;28;20261;-54
2023/02/13 02:31:02;;;;;;;34.58;16.17;;;;;;;17.40;69.80;103564.16;5078088;28;20277;-51
2023/02/13 02:33:53;;;;;;;42.60;17.37;;;;;;;17.41;69.47;103563.13;5094905;28;20108;-52
2023/02/13 02:36:25;;;;;;;37.63;15.40;;;;;;;17.39;69.72;103555.19;5096925;28;20268;-52
2023/02/13 02:38:54;;;;;;;40.17;16.60;;;;;;;17.36;69.90;103565.53;5082912;28;20285;-50
2023/02/13 02:41:40;;;;;;;39.10;17.43;;;;;;;17.41;69.77;103563.13;5103531;28;20285;-54
2023/02/13 02:44:25;;;;;;;39.25;17.50;;;;;;;17.30;69.95;103557.09;5084066;28;20269;-54
2023/02/13 02:50:00;;;;;;;41.87;18.07;;;;;;;17.48;69.52;103564.13;5111372;28;20302;-49
2023/02/13 02:52:54;;;;;;;36.43;17.40;;;;;;;17.41;69.75;103557.72;5096435;28;20269;-51
2023/02/13 02:55:32;;;;;;;44.77;15.70;;;;;;;17.30;70.32;103557.09;5098706;28;20294;-48
2023/02/13 03:06:45;;;;;;;40.27;17.03;;;;;;;17.34;70.54;103565.69;5103877;28;20036;-50
2023/02/13 03:14:46;;;;;;;34.87;15.03;;;;;;;17.24;70.96;103562.34;5101347;28;20036;-53
2023/02/13 03:23:29;;;;;;;38.17;16.53;;;;;;;17.19;71.15;103560.16;5097715;28;20032;-51
2023/02/13 03:26:06;;;;;;;38.20;16.67;;;;;;;17.28;71.08;103561.00;5099698;28;20288;-53
2023/02/13 03:32:00;;;;;;;35.53;14.65;;;;;;;17.31;71.02;103564.19;5098107;28;20291;-56
2023/02/13 03:37:53;;;;;;;43.90;16.63;;;;;;;17.25;71.19;103570.28;5098958;28;20045;-53
2023/02/13 03:40:27;;;;;;;45.43;16.10;;;;;;;17.20;71.44;103565.41;5108821;28;20066;-54
2023/02/13 03:43:16;;;;;;;38.33;17.10;;;;;;;17.48;70.66;103566.81;5101620;28;20280;-52
2023/02/13 03:45:52;;;;;;;40.73;17.30;;;;;;;17.43;70.85;103561.09;5100532;28;20269;-55
2023/02/13 03:51:20;;;;;;;40.97;17.03;;;;;;;17.50;70.80;103564.78;5098428;28;20040;-52
2023/02/13 03:53:53;;;;;;;37.03;16.87;;;;;;;17.50;70.66;103564.78;5097636;28;20333;-50
2023/02/13 03:59:15;;;;;;;39.10;16.00;;;;;;;17.56;70.88;103563.25;5100282;28;20336;-49
2023/02/13 04:01:54;;;;;;;42.40;17.65;;;;;;;17.51;70.99;103562.94;5102795;28;20405;-53
2023/02/13 04:04:27;;;;;;;42.60;18.03;;;;;;;17.45;71.24;103561.75;5100841;28;20037;-49
2023/02/13 04:06:58;;;;;;;42.37;17.93;;;;;;;17.49;70.99;103565.81;5103133;28;20290;-52
2023/02/13 04:09:27;;;;;;;35.83;16.80;;;;;;;17.45;71.39;103564.47;5097774;28;20289;-50
2023/02/13 04:12:01;;;;;;;42.57;17.93;;;;;;;17.49;71.29;103563.94;5096580;28;20273;-52
2023/02/13 04:14:36;;;;;;;42.60;18.97;;;;;;;17.44;71.38;103565.50;5105843;28;20264;-52
2023/02/13 04:17:05;;;;;;;40.27;17.80;;;;;;;17.53;71.24;103564.44;5107909;28;20261;-52
2023/02/13 04:19:32;;;;;;;43.10;18.10;;;;;;;17.39;71.61;103559.75;5104765;28;20299;-54
2023/02/13 04:22:00;;;;;;;42.05;19.08;;;;;;;17.29;72.14;103555.38;5097552;28;20277;-52
2023/02/13 04:24:26;;;;;;;43.53;19.07;;;;;;;17.32;72.01;103557.78;5099981;28;20024;-48
2023/02/13 04:26:52;;;;;;;;;;;;;;;17.30;72.28;103558.94;5098168;28;20326;-54
2023/02/13 04:29:17;;;;;;;40.77;18.17;;;;;;;17.18;73.09;103553.06;5100769;28;19916;-52
2023/02/13 04:31:43;;;;;;;44.97;19.95;;;;;;;17.15;73.12;103554.25;5102094;28;20098;-49
2023/02/13 04:34:09;;;;;;;41.83;18.45;;;;;;;17.32;73.04;103556.91;5096537;28;20055;-52
2023/02/13 04:36:34;;;;;;;52.30;20.73;;;;;;;17.30;72.62;103554.41;5098426;28;20103;-52
2023/02/13 04:39:00;;;;;;;44.53;19.23;;;;;;;17.38;72.65;103558.09;5098541;28;20029;-47
2023/02/13 04:41:25;;;;;;;45.92;18.08;;;;;;;17.25;73.34;103553.22;5097185;28;20032;-50
2023/02/13 04:43:51;;;;;;;49.77;20.43;;;;;;;17.35;73.25;103556.56;5096722;28;20041;-53
2023/02/13 04:46:17;;;;;;;48.13;19.88;;;;;;;17.39;73.22;103551.66;5102626;28;20042;-50
2023/02/13 04:48:43;;;;;;;50.25;19.80;;;;;;;17.29;73.51;103549.97;5097562;28;20044;-51
2023/02/13 04:51:08;;;;;;;46.27;20.67;;;;;;;17.33;73.59;103545.94;5100967;28;20043;-51
2023/02/13 04:53:34;;;;;;;48.88;21.00;;;;;;;17.42;73.62;103540.47;5100042;28;20032;-54
2023/02/13 04:56:00;;;;;;;48.77;20.10;;;;;;;17.19;74.30;103542.09;5098997;28;20037;-54
2023/02/13 04:58:25;;;;;;;49.20;19.60;;;;;;;17.22;74.14;103543.59;5106910;28;20323;-49
2023/02/13 05:00:51;;;;;;;52.13;21.20;;;;;;;17.24;74.30;103541.56;5099484;28;20082;-54
2023/02/13 05:03:16;;;;;;;56.77;22.87;;;;;;;17.26;74.09;103539.50;5083317;28;20260;-54
2023/02/13 05:05:42;;;;;;;49.13;20.63;;;;;;;17.19;74.44;103541.25;5103964;28;20035;-51
2023/02/13 05:08:08;;;;;;;50.67;21.87;;;;;;;17.19;74.87;103533.13;5096734;28;20036;-55
2023/02/13 05:10:34;;;;;;;47.10;21.75;;;;;;;17.28;74.38;103536.66;5097968;28;20087;-53
2023/02/13 05:13:00;;;;;;;52.28;22.20;;;;;;;17.17;74.58;103532.47;5099742;28;20036;-51
2023/02/13 05:15:26;;;;;;;47.95;21.80;;;;;;;17.20;74.59;103530.25;5099144;28;20066;-49
2023/02/13 05:17:51;;;;;;;58.75;23.90;;;;;;;16.94;75.24;103516.09;5103633;28;20049;-51
2023/02/13 05:20:17;;;;;;;52.08;22.58;;;;;;;16.94;75.53;103514.25;5096488;28;20036;-53
2023/02/13 05:25:36;;;;;;;50.40;21.77;;;;;;;16.55;77.23;103509.56;5095352;28;20029;-50
2023/02/13 05:28:02;;;;;;;59.03;23.17;;;;;;;16.45;78.05;103507.91;5097614;28;20087;-54
2023/02/13 05:30:28;;;;;;;52.97;22.40;;;;;;;16.37;78.45;103518.69;5100314;28;20032;-52
2023/02/13 05:32:53;;;;;;;59.27;24.20;;;;;;;16.27;79.05;103515.31;5102779;28;20032;-56
2023/02/13 05:35:23;;;;;;;54.90;23.25;;;;;;;16.15;80.09;103514.81;5097372;28;20032;-55
2023/02/13 05:37:49;;;;;;;57.33;23.08;;;;;;;16.09;80.21;103524.41;5098513;28;20024;-53
2023/02/13 05:40:15;;;;;;;57.97;22.65;;;;;;;16.70;78.22;103523.22;5097365;28;20036;-55
2023/02/13 05:42:41;;;;;;;46.97;22.70;;;;;;;15.72;82.42;103513.00;5102292;28;20032;-53
2023/02/13 05:45:08;;;;;;;55.22;23.33;;;;;;;15.49;84.42;103507.41;5097911;28;20044;-52
2023/02/13 05:47:35;;;;;;;57.33;23.50;;;;;;;15.38;86.62;103505.84;5096927;28;20036;-49
2023/02/13 05:50:01;;;;;;;57.00;24.73;;;;;;;16.09;84.16;103500.13;5100337;28;20047;-50
2023/02/13 05:52:27;;;;;;;65.55;24.13;;;;;;;16.22;82.77;103504.19;5097807;28;20036;-51
2023/02/13 05:54:52;;;;;;;62.27;24.87;;;;;;;16.34;80.46;103510.94;5100248;28;20044;-54
2023/02/13 05:57:18;;;;;;;61.33;23.67;;;;;;;16.69;78.77;103500.78;5097243;28;20332;-51
2023/02/13 05:59:43;;;;;;;72.20;28.23;;;;;;;16.83;78.33;103509.19;5098042;28;20055;-49
2023/02/13 06:02:09;;;;;;;60.88;25.92;;;;;;;16.07;80.12;103517.50;5096278;28;20277;-51
2023/02/13 06:04:34;;;;;;;59.73;25.73;;;;;;;15.83;82.38;103519.13;5095163;28;20035;-51
2023/02/13 06:07:00;;;;;;;57.20;23.50;;;;;;;15.84;81.36;103524.34;5099322;28;20062;-50
2023/02/13 06:09:25;;;;;;;57.20;23.03;;;;;;;15.82;81.58;103517.44;5094645;28;20047;-52
2023/02/13 06:11:51;;;;;;;60.13;23.67;;;;;;;15.68;82.06;103522.44;5104851;28;20029;-51
2023/02/13 06:14:16;;;;;;;58.57;24.30;;;;;;;15.46;84.57;103522.03;5083749;28;20288;-50
2023/02/13 06:16:42;;;;;;;65.50;25.83;;;;;;;15.49;83.64;103519.00;5096665;28;20053;-52
2023/02/13 06:19:07;;;;;;;59.40;24.37;;;;;;;15.48;84.13;103519.19;5101397;28;20306;-51
2023/02/13 06:21:36;;;;;;;64.07;24.58;;;;;;;15.46;84.35;103521.22;5100189;28;20092;-49
2023/02/13 06:24:03;;;;;;;66.97;25.92;;;;;;;15.49;84.38;103520.88;5099557;28;20062;-53
2023/02/13 06:26:29;;;;;;;63.00;24.52;;;;;;;15.46;84.85;103521.22;5096812;28;20092;-48
2023/02/13 06:28:54;;;;;;;58.57;24.33;;;;;;;15.43;84.78;103526.91;5099687;28;20044;-52
2023/02/13 06:31:20;;;;;;;58.40;26.30;;;;;;;15.44;84.03;103525.88;5091679;28;20032;-51
2023/02/13 06:33:46;;;;;;;56.67;23.10;;;;;;;15.40;84.18;103525.38;5098315;28;20052;-51
2023/02/13 06:36:11;;;;;;;56.20;23.07;;;;;;;15.39;84.00;103526.41;5096799;28;20058;-50
2023/02/13 06:38:37;;;;;;;56.95;23.55;;;;;;;15.39;84.18;103525.53;5095743;28;20062;-52
2023/02/13 06:41:03;;;;;;;67.30;24.27;;;;;;;15.42;84.63;103530.59;5099300;28;20039;-54
2023/02/13 06:43:29;;;;;;;56.47;24.73;;;;;;;15.42;83.57;103533.31;5101475;28;20060;-50
2023/02/13 06:45:55;;;;;;;64.13;25.83;;;;;;;15.33;84.23;103529.72;5094322;28;20039;-51
2023/02/13 06:48:21;;;;;;;60.97;25.30;;;;;;;15.33;83.98;103527.03;5100729;28;20336;-48
2023/02/13 06:50:47;;;;;;;69.10;25.73;;;;;;;15.20;85.24;103527.47;5096121;28;20043;-50
2023/02/13 06:53:13;;;;;;;60.85;25.60;;;;;;;15.25;85.60;103530.56;5096803;28;20047;-55
2023/02/13 06:55:38;;;;;;;63.83;25.60;;;;;;;15.23;84.92;103529.00;5098193;28;20037;-52
2023/02/13 06:58:05;;;;;;;73.43;25.70;;;;;;;15.19;85.04;103531.16;5097359;28;20036;-50
2023/02/13 07:00:30;;;;;;;73.93;25.73;;;;;;;15.09;86.02;103535.84;5098154;28;20032;-51
2023/02/13 07:03:04;;;;;;;63.27;24.53;;;;;;;15.22;85.04;103540.78;5099733;28;20061;-50
2023/02/13 07:05:31;;;;;;;60.47;24.40;;;;;;;15.15;85.63;103538.75;5097215;28;20032;-53
2023/02/13 07:07:57;;;;;;;64.00;26.50;;;;;;;15.14;85.75;103539.75;5097516;28;20096;-49
2023/02/13 07:10:23;;;;;;;70.73;26.33;;;;;;;15.10;86.76;103541.06;5098841;28;20029;-54
2023/02/13 07:12:49;;;;;;;63.38;25.13;;;;;;;15.10;86.66;103545.63;5096498;28;20273;-53
2023/02/13 07:15:15;;;;;;;66.32;25.92;;;;;;;15.22;85.59;103547.03;5100031;28;20047;-50
2023/02/13 07:17:41;;;;;;;66.35;25.58;;;;;;;15.13;87.05;103548.00;5097287;28;20052;-52
2023/02/13 07:20:07;;;;;;;77.43;24.70;;;;;;;15.17;86.67;103550.22;5097059;28;20032;-52
2023/02/13 07:22:33;;;;;;;86.68;26.83;;;;;;;15.20;86.54;103557.13;5077315;28;20332;-49
2023/02/13 07:25:00;;;;;;;67.00;25.00;;;;;;;15.22;86.88;103551.56;5094845;28;20051;-53
2023/02/13 07:27:28;;;;;;;72.00;26.83;;;;;;;15.23;87.04;103564.91;5095927;28;20056;-52
2023/02/13 07:29:56;;;;;;;71.22;25.77;;;;;;;15.14;88.08;103550.53;5100477;28;20063;-47
2023/02/13 07:32:22;;;;;;;69.60;27.17;;;;;;;15.14;88.92;103557.75;5098216;28;20100;-51
2023/02/13 07:34:47;;;;;;;55.95;23.23;;;;;;;15.25;88.42;103546.72;5094224;28;20052;-52
2023/02/13 07:37:13;;;;;;;64.22;23.50;;;;;;;16.08;84.77;103557.81;5099180;28;20055;-53
2023/02/13 07:39:38;;;;;;;56.87;24.10;;;;;;;15.47;86.96;103549.84;5101807;28;20037;-50
2023/02/13 07:42:05;;;;;;;57.73;23.80;;;;;;;15.37;88.67;103544.59;5095757;28;20043;-50
2023/02/13 07:44:30;;;;;;;56.70;23.35;;;;;;;16.36;83.61;103549.41;5096995;28;20032;-52
2023/02/13 07:46:56;;;;;;;63.97;24.77;;;;;;;16.58;82.40;103552.44;5098350;28;20033;-53
2023/02/13 07:49:22;;;;;;;65.78;23.63;;;;;;;15.75;85.90;103553.16;5101673;28;20065;-49
2023/02/13 07:51:47;;;;;;;58.27;25.63;;;;;;;15.54;87.73;103550.91;5101293;28;20051;-50
2023/02/13 07:54:13;;;;;;;63.35;23.23;;;;;;;15.53;88.77;103549.19;5102056;28;20032;-52
2023/02/13 07:56:38;;;;;;;49.27;17.70;;;;;;;15.72;88.05;103561.56;5106259;28;20045;-53
2023/02/13 07:59:04;;;;;;;87.73;22.83;;;;;;;15.74;88.01;103558.72;5103035;28;20297;-50
2023/02/13 08:01:29;;;;;;;58.33;22.73;;;;;;;15.83;88.47;103557.72;5086003;28;20036;-51
2023/02/13 08:03:55;;;;;;;59.00;24.23;;;;;;;15.82;87.73;103558.75;5102198;28;20056;-52
2023/02/13 08:06:21;;;;;;;60.30;23.83;;;;;;;15.87;88.06;103560.97;5100338;28;20021;-51
2023/02/13 08:08:47;;;;;;;53.60;20.98;;;;;;;15.96;87.98;103569.94;5097474;28;20050;-49
2023/02/13 08:14:09;;;;;;;56.25;22.20;;;;;;;16.11;88.02;103579.06;5100164;28;20055;-50
2023/02/13 08:16:34;;;;;;;48.17;21.20;;;;;;;16.18;88.33;103579.25;5097768;28;20036;-51
2023/02/13 08:19:00;;;;;;;52.53;22.65;;;;;;;16.68;85.27;103590.09;5100593;28;20029;-49
2023/02/13 08:21:26;;;;;;;46.43;20.47;;;;;;;16.34;86.25;103591.94;5099496;28;20075;-54
2023/02/13 08:23:51;;;;;;;50.65;22.27;;;;;;;16.41;87.28;103589.41;5099966;28;20044;-51
2023/02/13 08:26:17;;;;;;;52.70;23.17;;;;;;;16.57;86.56;103584.03;5083689;28;20055;-52
2023/02/13 08:28:42;;;;;;;45.58;19.70;;;;;;;16.60;86.23;103582.84;5097051;28;20056;-55
2023/02/13 08:31:10;;;;;;;50.50;21.60;;;;;;;16.60;85.78;103591.81;5097852;28;20032;-49
2023/02/13 08:33:35;;;;;;;48.27;20.27;;;;;;;16.82;86.05;103588.56;5099717;28;20054;-51
2023/02/13 08:36:02;;;;;;;44.67;20.70;;;;;;;17.05;84.10;103583.34;5096780;28;20305;-47
2023/02/13 08:38:28;;;;;;;43.90;20.33;;;;;;;17.59;83.02;103587.25;5099658;28;20044;-51
2023/02/13 08:40:55;;;;;;;40.75;20.30;;;;;;;17.73;81.13;103591.91;5101966;28;20288;-51
2023/02/13 08:43:21;;;;;;;42.30;21.03;;;;;;;18.13;78.38;103594.59;5104623;28;20036;-52
2023/02/13 08:45:47;;;;;;;46.37;18.83;;;;;;;18.28;77.78;103588.44;5105708;28;20318;-54
2023/02/13 08:48:12;;;;;;;43.13;19.70;;;;;;;18.92;75.57;103595.34;5096952;28;20024;-50
2023/02/13 08:50:38;;;;;;;41.47;18.35;;;;;;;19.34;74.34;103595.78;5099749;28;20047;-53
2023/02/13 08:53:04;;;;;;;37.23;17.43;;;;;;;19.45;72.61;103586.31;5099885;28;20123;-50
2023/02/13 08:55:30;;;;;;;42.30;19.00;;;;;;;19.88;71.44;103588.28;5099394;28;20040;-51
2023/02/13 08:58:01;;;;;;;48.50;17.10;;;;;;;20.38;69.97;103601.16;5096084;28;20327;-48
2023/02/13 09:00:27;;;;;;;197.83;34.37;;;;;;;20.87;68.16;103604.97;5098134;28;20040;-49
2023/02/13 09:02:52;;;;;;;96.20;25.05;;;;;;;20.99;67.34;103603.41;5095045;28;20308;-52
2023/02/13 09:05:18;;;;;;;47.25;18.30;;;;;;;21.34;65.64;103606.13;5097872;28;20063;-54
2023/02/13 09:07:44;;;;;;;36.75;17.15;;;;;;;21.94;63.90;103609.34;5099383;28;20087;-53
2023/02/13 09:10:10;;;;;;;32.00;16.80;;;;;;;21.96;63.17;103607.25;5097665;28;20043;-53
2023/02/13 09:12:35;;;;;;;34.70;16.85;;;;;;;22.52;62.23;103603.38;5101196;28;20024;-54
2023/02/13 09:15:00;;;;;;;28.07;15.97;;;;;;;22.22;61.54;103611.06;5101022;28;20076;-52
2023/02/13 09:17:26;;;;;;;35.03;16.37;;;;;;;22.26;61.79;103612.34;5101203;28;20024;-52
2023/02/13 09:19:51;;;;;;;28.67;15.23;;;;;;;22.63;60.64;103612.81;5101126;28;20183;-51
2023/02/13 09:22:16;;;;;;;33.50;15.57;;;;;;;23.18;59.19;103608.97;5096813;28;20032;-50
2023/02/13 09:24:42;;;;;;;35.63;15.15;;;;;;;23.81;57.87;103615.69;5101109;28;20050;-53
2023/02/13 09:27:07;;;;;;;32.17;15.77;;;;;;;24.32;56.32;103616.66;5101301;28;20039;-53
2023/02/13 09:29:33;;;;;;;35.13;16.57;;;;;;;24.03;56.08;103618.13;5097212;28;20101;-52
2023/02/13 09:31:59;;;;;;;29.50;15.23;;;;;;;23.27;57.73;103604.16;5094988;28;20289;-53
2023/02/13 09:34:25;;;;;;;24.77;14.00;;;;;;;23.23;56.96;103616.53;5094422;28;20048;-52
2023/02/13 09:36:54;;;;;;;28.30;14.63;;;;;;;22.82;57.26;103615.72;5098968;28;20040;-53
2023/02/13 09:39:19;;;;;;;27.27;15.10;;;;;;;23.63;55.95;103617.25;5101835;28;20046;-54
2023/02/13 09:41:48;;;;;;;26.08;14.73;;;;;;;24.04;54.93;103622.53;5095304;28;20032;-51
2023/02/13 09:44:32;;;;;;;25.80;14.17;;;;;;;23.65;55.60;103621.66;5096978;28;20043;-52
2023/02/13 09:47:12;;;;;;;27.93;14.37;;;;;;;23.69;55.58;103617.44;5098190;28;20100;-50
2023/02/13 09:49:43;;;;;;;26.93;13.93;;;;;;;24.79;53.93;103622.84;5098465;28;20032;-49
2023/02/13 09:52:09;;;;;;;30.60;15.53;;;;;;;24.61;53.68;103618.97;5094684;28;20123;-51
2023/02/13 09:54:34;;;;;;;27.65;14.07;;;;;;;24.25;53.14;103626.00;5097958;28;20036;-55
2023/02/13 09:57:20;;;;;;;29.40;15.48;;;;;;;23.97;53.43;103616.22;5103705;28;20039;-50
2023/02/13 09:59:59;;;;;;;26.10;14.37;;;;;;;24.68;52.83;103625.25;5097285;28;20052;-51
2023/02/13 10:02:55;;;;;;;26.23;13.87;;;;;;;24.53;52.56;103614.59;5076301;28;20094;-50
2023/02/13 10:05:36;;;;;;;28.30;14.63;;;;;;;24.82;51.80;103620.50;5102722;28;20054;-50
2023/02/13 10:08:33;;;;;;;26.97;14.33;;;;;;;24.58;51.64;103627.63;5095503;28;20035;-50
2023/02/13 10:11:04;;;;;;;38.30;15.07;;;;;;;24.43;52.35;103617.84;5096234;28;20036;-50
2023/02/13 10:13:54;;;;;;;32.23;15.07;;;;;;;25.53;50.26;103611.97;5095040;28;20068;-52
2023/02/13 10:16:23;;;;;;;26.30;15.10;;;;;;;25.27;50.46;103624.88;5092352;28;20028;-51
2023/02/13 10:19:02;;;;;;;25.03;14.00;;;;;;;26.38;48.94;103619.44;5094392;28;20043;-52
2023/02/13 10:21:33;;;;;;;25.13;14.53;;;;;;;26.38;48.20;103620.28;5101246;28;20047;-51
2023/02/13 10:24:19;;;;;;;29.30;15.20;;;;;;;28.02;46.46;103623.25;5096743;28;20036;-52
2023/02/13 10:26:46;;;;;;;24.33;13.63;;;;;;;28.29;44.88;103628.16;5092222;28;20066;-53
2023/02/13 10:32:09;;;;;;;24.60;13.90;;;;;;;28.08;43.96;103621.44;5097864;28;20039;-54
2023/02/13 10:34:41;;;;;;;35.07;15.00;;;;;;;28.85;43.43;103619.97;5092496;28;20117;-51
2023/02/13 10:37:16;;;;;;;27.20;14.13;;;;;;;28.19;43.24;103613.16;5096919;28;20032;-54
2023/02/13 10:39:45;;;;;;;24.03;14.37;;;;;;;28.42;43.22;103622.34;5097299;28;20032;-54
2023/02/13 10:42:40;;;;;;;27.53;15.77;;;;;;;28.27;43.00;103613.81;5097334;28;20029;-53
2023/02/13 10:45:43;;;;;;;26.20;14.83;;;;;;;29.17;42.54;103610.19;5100378;28;20100;-53
2023/02/13 10:48:30;;;;;;;26.70;14.80;;;;;;;29.75;41.29;103605.09;5098392;28;20036;-55
2023/02/13 10:51:08;;;;;;;34.70;15.00;;;;;;;30.04;40.79;103606.78;5098588;28;20104;-51
2023/02/13 10:53:49;;;;;;;25.40;14.47;;;;;;;30.41;39.84;103611.47;5095518;28;20036;-54
2023/02/13 10:56:22;;;;;;;31.37;14.77;;;;;;;31.19;39.24;103612.81;5095238;28;20052;-54
2023/02/13 10:59:11;;;;;;;26.60;15.23;;;;;;;30.75;38.88;103607.59;5094595;28;20081;-55
2023/02/13 11:02:12;;;;;;;26.42;14.70;;;;;;;30.95;38.54;103611.56;5094662;28;20031;-52
2023/02/13 11:04:40;;;;;;;23.02;13.43;;;;;;;31.87;37.83;103602.78;5070796;28;20086;-55
2023/02/13 11:07:13;;;;;;;26.23;14.73;;;;;;;32.60;36.33;103606.34;5079538;28;20040;-55
2023/02/13 11:09:42;;;;;;;23.17;14.25;;;;;;;31.71;36.51;103603.84;5090881;28;20020;-54
2023/02/13 11:12:23;;;;;;;23.20;13.98;;;;;;;31.99;36.19;103607.19;5094781;28;20036;-53
2023/02/13 11:15:07;;;;;;;22.35;13.38;;;;;;;32.19;35.75;103598.91;5093742;28;20032;-53
2023/02/13 11:17:35;;;;;;;23.30;14.27;;;;;;;31.56;35.94;103596.34;5092972;28;20028;-55
2023/02/13 11:20:33;;;;;;;20.77;12.57;;;;;;;32.03;35.81;103583.41;5099818;28;20056;-56
2023/02/13 11:23:17;;;;;;;25.30;13.63;;;;;;;32.53;34.83;103596.69;5097364;28;20078;-55
2023/02/13 11:25:59;;;;;;;23.15;13.65;;;;;;;32.27;34.71;103588.38;5099643;28;20028;-55
2023/02/13 11:28:27;;;;;;;22.65;13.73;;;;;;;33.06;33.76;103584.34;5104187;28;20031;-51
2023/02/13 11:31:11;;;;;;;30.20;13.50;;;;;;;33.43;33.46;103586.66;5097125;28;20040;-52
2023/02/13 11:33:38;;;;;;;22.58;13.35;;;;;;;34.20;32.56;103581.63;5103447;28;20063;-52
2023/02/13 11:36:12;;;;;;;21.67;12.95;;;;;;;35.03;31.75;103573.22;5100316;28;20028;-50
2023/02/13 11:38:37;;;;;;;21.25;12.60;;;;;;;35.09;31.32;103573.97;5106227;28;20036;-56
2023/02/13 11:41:10;;;;;;;19.92;12.85;;;;;;;35.31;31.20;103567.84;5098569;28;20080;-53
2023/02/13 11:43:45;;;;;;;23.55;12.50;;;;;;;35.80;30.18;103575.16;5103196;28;20032;-54
2023/02/13 11:46:21;;;;;;;21.02;12.85;;;;;;;35.13;30.34;103565.88;5102978;28;20024;-51
2023/02/13 11:49:02;;;;;;;21.02;11.85;;;;;;;35.72;29.54;103568.31;5097684;28;20036;-50
2023/02/13 11:51:47;;;;;;;21.65;12.85;;;;;;;35.88;29.49;103568.91;5100559;28;20096;-54
2023/02/13 11:54:27;;;;;;;23.20;12.68;;;;;;;35.34;29.37;103566.38;5105579;28;20020;-54
2023/02/13 11:56:54;;;;;;;21.08;12.98;;;;;;;35.55;29.85;103558.59;5102289;28;20047;-55
2023/02/13 11:59:25;;;;;;;20.88;12.25;;;;;;;36.22;28.99;103556.59;5085602;28;20053;-54
2023/02/13 12:02:20;;;;;;;23.23;13.90;;;;;;;36.29;28.75;103559.81;5101501;28;20024;-55
2023/02/13 12:04:49;;;;;;;18.98;11.75;;;;;;;36.72;28.07;103549.50;5073854;28;20047;-53
2023/02/13 12:07:22;;;;;;;19.50;12.82;;;;;;;35.58;28.25;103554.34;5102289;28;20025;-54